Time;durP1;ratioP1;P1;durP2;ratioP2;P2;SDS_P1;SDS_P2;PMS_P1;PMS_P2;Temp;Humidity;BMP_temperature;BMP_pressure;BME280_temperature;BME280_humidity;BME280_pressure;Samples;Min_cycle;Max_cycle;Signal;HPM_P1;HPM_P2
2023/09/13 00:02:01;;;;;;;5.75;4.80;;;23.30;96.70;;;;;;5086714;28;20043;-70
2023/09/13 00:04:29;;;;;;;4.88;4.35;;;23.20;96.70;;;;;;5069748;28;20051;-71
2023/09/13 00:06:57;;;;;;;6.35;4.22;;;23.30;96.70;;;;;;5087996;28;20062;-70
2023/09/13 00:09:25;;;;;;;4.85;4.30;;;23.30;96.70;;;;;;5088227;28;20101;-70
2023/09/13 00:11:54;;;;;;;6.57;4.82;;;23.20;96.70;;;;;;5069564;28;20040;-70
2023/09/13 00:14:23;;;;;;;4.95;4.47;;;23.20;96.70;;;;;;5086049;28;20048;-71
2023/09/13 00:16:50;;;;;;;7.18;4.63;;;23.10;96.70;;;;;;5086046;28;20555;-71
2023/09/13 00:19:19;;;;;;;6.05;4.70;;;23.00;96.70;;;;;;5086042;28;20128;-70
2023/09/13 00:21:48;;;;;;;4.82;4.32;;;23.00;96.70;;;;;;5088017;28;20163;-70
2023/09/13 00:24:16;;;;;;;6.38;4.28;;;23.00;96.70;;;;;;5086001;28;20052;-70
2023/09/13 00:26:44;;;;;;;5.93;4.95;;;23.00;96.70;;;;;;5085926;28;20404;-70
2023/09/13 00:29:15;;;;;;;6.07;4.13;;;23.00;96.70;;;;;;5085274;28;20072;-71
2023/09/13 00:31:43;;;;;;;5.10;4.60;;;22.80;96.70;;;;;;5079828;28;20076;-70
2023/09/13 00:34:11;;;;;;;7.28;4.63;;;22.80;96.70;;;;;;5083836;28;20543;-70
2023/09/13 00:36:40;;;;;;;5.32;4.35;;;22.80;96.70;;;;;;5106665;28;20056;-70
2023/09/13 00:39:08;;;;;;;5.35;4.85;;;22.80;96.70;;;;;;5089287;28;20523;-71
2023/09/13 00:41:36;;;;;;;5.20;4.75;;;22.80;96.70;;;;;;5089930;28;20048;-71
2023/09/13 00:44:04;;;;;;;5.03;4.47;;;22.80;96.70;;;;;;5089422;28;20683;-70
2023/09/13 00:46:34;;;;;;;6.68;4.47;;;22.80;96.70;;;;;;5089677;28;20135;-71
2023/09/13 00:49:03;;;;;;;4.95;4.28;;;22.80;96.70;;;;;;5107296;28;20562;-70
2023/09/13 00:51:31;;;;;;;6.55;4.88;;;22.90;96.70;;;;;;5068726;28;20040;-71
2023/09/13 00:54:01;;;;;;;5.28;4.80;;;22.70;96.70;;;;;;5087102;28;20047;-71
2023/09/13 00:56:31;;;;;;;6.13;5.47;;;22.70;96.70;;;;;;5089338;28;20097;-71
2023/09/13 00:59:00;;;;;;;6.53;5.05;;;22.70;96.70;;;;;;5087761;28;20055;-71
2023/09/13 01:01:28;;;;;;;6.63;4.65;;;22.60;96.70;;;;;;5089082;28;20047;-71
2023/09/13 01:03:58;;;;;;;6.10;5.28;;;22.60;96.70;;;;;;5114932;27;20073;-71
2023/09/13 01:06:27;;;;;;;5.20;4.80;;;22.60;96.70;;;;;;5072771;28;20142;-71
2023/09/13 01:08:55;;;;;;;5.55;5.00;;;22.60;96.70;;;;;;5088779;28;20088;-72
2023/09/13 01:11:24;;;;;;;6.53;5.20;;;22.50;96.70;;;;;;5089168;28;20127;-70
2023/09/13 01:13:51;;;;;;;5.20;4.40;;;22.60;96.70;;;;;;5085639;28;20757;-71
2023/09/13 01:16:27;;;;;;;5.45;4.90;;;22.50;96.70;;;;;;5085114;28;20047;-70
2023/09/13 01:19:05;;;;;;;5.05;4.50;;;22.50;96.70;;;;;;5088754;28;20446;-71
2023/09/13 01:21:55;;;;;;;5.82;5.00;;;22.40;96.70;;;;;;5096992;28;20044;-71
2023/09/13 01:24:56;;;;;;;5.25;4.72;;;22.40;96.70;;;;;;5106527;28;20103;-71
2023/09/13 01:27:44;;;;;;;6.88;5.30;;;22.50;96.70;;;;;;5003460;28;20123;-71
2023/09/13 01:30:16;;;;;;;6.45;4.82;;;22.50;96.70;;;;;;5019826;28;20527;-70
2023/09/13 01:32:45;;;;;;;5.40;4.90;;;22.50;96.70;;;;;;5026086;28;20548;-70
2023/09/13 01:35:13;;;;;;;5.80;5.25;;;22.40;96.70;;;;;;5017555;28;20059;-70
2023/09/13 01:37:41;;;;;;;5.70;5.20;;;22.40;96.70;;;;;;5026763;28;20635;-70
2023/09/13 01:40:10;;;;;;;5.90;4.60;;;22.30;96.70;;;;;;5026223;28;20094;-70
2023/09/13 01:42:40;;;;;;;5.30;4.85;;;22.30;96.70;;;;;;5009923;28;20552;-70
2023/09/13 01:45:11;;;;;;;5.50;5.00;;;22.30;96.70;;;;;;5026355;28;20055;-70
2023/09/13 01:47:42;;;;;;;5.68;4.75;;;22.30;96.70;;;;;;5011429;28;20121;-70
2023/09/13 01:50:12;;;;;;;5.78;4.53;;;22.30;96.70;;;;;;5026282;28;20080;-71
2023/09/13 01:52:40;;;;;;;5.03;4.55;;;22.30;96.70;;;;;;5026620;28;20061;-70
2023/09/13 01:55:09;;;;;;;8.73;4.65;;;22.20;96.70;;;;;;5043046;28;20546;-70
2023/09/13 01:57:39;;;;;;;5.57;4.88;;;22.20;96.70;;;;;;5041579;28;20803;-71
2023/09/13 02:00:08;;;;;;;7.47;5.28;;;22.10;96.70;;;;;;5087623;28;20050;-72
2023/09/13 02:02:41;;;;;;;7.45;5.22;;;22.10;96.70;;;;;;5085506;28;20117;-70
2023/09/13 02:05:09;;;;;;;5.65;5.13;;;22.00;96.70;;;;;;5070890;28;20524;-71
2023/09/13 02:07:37;;;;;;;7.38;5.10;;;22.00;96.70;;;;;;5087733;28;20071;-70
2023/09/13 02:10:06;;;;;;;5.97;4.88;;;22.00;96.70;;;;;;5070927;28;20044;-71
2023/09/13 02:12:34;;;;;;;7.63;5.50;;;21.90;96.70;;;;;;5071007;28;20067;-71
2023/09/13 02:15:04;;;;;;;6.65;5.53;;;21.80;96.70;;;;;;5087823;28;20043;-71
2023/09/13 02:17:32;;;;;;;5.57;4.97;;;21.90;96.70;;;;;;5070416;28;20050;-71
2023/09/13 02:20:04;;;;;;;6.43;5.20;;;21.90;96.70;;;;;;5087091;28;20058;-72
2023/09/13 02:22:32;;;;;;;6.07;5.47;;;21.90;96.70;;;;;;5087460;28;20138;-71
2023/09/13 02:25:01;;;;;;;9.25;5.43;;;21.90;96.70;;;;;;5070894;28;20548;-70
2023/09/13 02:27:32;;;;;;;7.90;5.63;;;21.80;96.70;;;;;;5064957;28;20501;-70
2023/09/13 02:30:01;;;;;;;6.93;5.47;;;21.80;96.70;;;;;;5070326;28;20493;-71
2023/09/13 02:32:29;;;;;;;5.60;5.03;;;21.70;96.70;;;;;;5070472;28;20512;-71
2023/09/13 02:34:58;;;;;;;6.07;5.50;;;21.70;96.70;;;;;;5070088;28;20149;-73
2023/09/13 02:37:28;;;;;;;6.80;5.50;;;21.80;96.70;;;;;;5087538;28;20786;-70
2023/09/13 02:39:57;;;;;;;5.75;5.22;;;21.90;96.70;;;;;;5070580;28;20052;-70
2023/09/13 02:42:27;;;;;;;4.70;4.28;;;21.80;96.70;;;;;;5070765;28;20044;-70
2023/09/13 02:44:55;;;;;;;6.13;5.53;;;21.80;96.70;;;;;;5086154;28;20040;-71
2023/09/13 02:47:23;;;;;;;6.25;5.10;;;21.70;96.70;;;;;;5086756;28;20078;-71
2023/09/13 02:49:51;;;;;;;6.07;5.55;;;21.60;96.70;;;;;;5070514;28;20089;-70
2023/09/13 02:52:29;;;;;;;6.15;5.15;;;21.60;96.70;;;;;;5087064;28;20071;-70
2023/09/13 02:54:57;;;;;;;5.60;4.63;;;21.60;96.70;;;;;;5105382;28;20043;-70
2023/09/13 02:57:26;;;;;;;6.45;4.70;;;21.60;96.70;;;;;;5105155;28;20429;-71
2023/09/13 02:59:54;;;;;;;5.25;4.70;;;21.60;96.70;;;;;;5062445;28;20143;-70
2023/09/13 03:02:21;;;;;;;5.22;4.72;;;21.60;96.70;;;;;;5066937;28;20036;-71
2023/09/13 03:04:51;;;;;;;5.93;4.80;;;21.60;96.70;;;;;;5104218;28;20548;-70
2023/09/13 03:07:20;;;;;;;5.70;5.07;;;21.60;96.70;;;;;;5070487;28;20047;-70
2023/09/13 03:09:54;;;;;;;5.07;4.68;;;21.70;96.70;;;;;;5070364;28;20051;-70
2023/09/13 03:12:23;;;;;;;6.13;4.93;;;21.60;96.70;;;;;;5086860;28;20071;-70
2023/09/13 03:14:51;;;;;;;6.40;4.68;;;21.50;96.70;;;;;;5070061;28;20047;-71
2023/09/13 03:17:20;;;;;;;5.20;4.80;;;21.50;96.70;;;;;;5086706;28;20416;-70
2023/09/13 03:19:48;;;;;;;6.38;5.00;;;21.40;96.70;;;;;;5086746;28;20068;-70
2023/09/13 03:22:16;;;;;;;5.80;5.20;;;21.30;96.70;;;;;;5070970;28;20650;-71
2023/09/13 03:24:44;;;;;;;6.22;4.32;;;21.30;96.70;;;;;;5099303;28;20048;-70
2023/09/13 03:27:14;;;;;;;6.60;4.80;;;21.30;96.70;;;;;;5109019;28;20060;-70
2023/09/13 03:29:42;;;;;;;5.32;4.82;;;21.30;96.70;;;;;;5109063;28;20042;-70
2023/09/13 03:32:11;;;;;;;5.72;4.90;;;21.20;96.70;;;;;;5073863;28;20143;-70
2023/09/13 03:34:39;;;;;;;8.00;5.28;;;21.20;96.70;;;;;;5089785;28;20549;-71
2023/09/13 03:37:07;;;;;;;5.85;4.72;;;21.10;96.70;;;;;;5073939;28;20077;-69
2023/09/13 03:39:36;;;;;;;4.78;4.28;;;21.10;96.70;;;;;;5089374;28;20055;-70
2023/09/13 03:42:04;;;;;;;5.18;4.57;;;21.10;96.70;;;;;;5069368;28;20052;-70
2023/09/13 03:44:33;;;;;;;5.50;4.30;;;21.20;96.70;;;;;;5082825;28;20077;-70
2023/09/13 03:47:01;;;;;;;5.28;4.78;;;21.20;96.70;;;;;;5094997;28;20134;-71
2023/09/13 03:49:29;;;;;;;4.90;4.50;;;21.20;96.70;;;;;;5108948;28;20044;-70
2023/09/13 03:52:01;;;;;;;5.13;4.57;;;21.10;96.70;;;;;;5073659;28;20507;-70
2023/09/13 03:54:30;;;;;;;5.18;4.75;;;21.20;96.70;;;;;;5098538;28;20044;-70
2023/09/13 03:56:58;;;;;;;6.03;5.43;;;21.20;96.70;;;;;;5098807;28;20052;-71
2023/09/13 03:59:26;;;;;;;5.20;4.70;;;21.20;96.70;;;;;;5094682;28;20051;-71
2023/09/13 04:01:55;;;;;;;5.50;4.53;;;21.00;96.70;;;;;;5107635;28;20047;-70
2023/09/13 04:04:27;;;;;;;6.18;4.85;;;21.00;96.70;;;;;;5137480;27;20056;-72
2023/09/13 04:06:55;;;;;;;6.35;4.90;;;21.10;96.70;;;;;;5099796;28;20063;-71
2023/09/13 04:09:23;;;;;;;5.35;4.82;;;21.20;96.70;;;;;;5090028;28;20048;-71
2023/09/13 04:11:51;;;;;;;5.40;4.90;;;21.30;96.70;;;;;;5089822;28;20056;-70
2023/09/13 04:14:19;;;;;;;5.65;5.03;;;21.00;96.70;;;;;;5089816;28;20439;-71
2023/09/13 04:16:47;;;;;;;6.15;4.97;;;20.80;96.70;;;;;;5089768;28;20073;-71
2023/09/13 04:19:17;;;;;;;6.32;5.72;;;20.80;96.70;;;;;;5072841;28;20378;-70
2023/09/13 04:21:45;;;;;;;6.97;5.70;;;20.70;96.70;;;;;;5090041;28;20040;-71
2023/09/13 04:24:13;;;;;;;6.95;5.93;;;20.50;96.70;;;;;;5090351;28;20393;-70
2023/09/13 04:26:41;;;;;;;6.38;5.78;;;20.40;96.70;;;;;;5073002;28;20075;-71
2023/09/13 04:29:09;;;;;;;7.22;5.70;;;20.30;96.70;;;;;;5089018;28;20859;-70
2023/09/13 04:31:37;;;;;;;7.13;6.40;;;20.40;96.70;;;;;;5089524;28;20043;-70
2023/09/13 04:34:05;;;;;;;6.68;6.07;;;20.30;96.70;;;;;;5077164;28;20143;-71
2023/09/13 04:36:38;;;;;;;6.70;5.93;;;20.60;96.70;;;;;;5075353;28;20048;-71
2023/09/13 04:39:07;;;;;;;8.68;6.13;;;20.80;96.70;;;;;;5072840;28;20043;-70
2023/09/13 04:41:35;;;;;;;6.72;6.13;;;20.90;96.70;;;;;;5072762;28;20044;-72
2023/09/13 04:44:03;;;;;;;7.70;6.72;;;20.90;96.70;;;;;;5089051;28;20047;-70
2023/09/13 04:46:31;;;;;;;8.55;6.72;;;20.90;96.70;;;;;;5086774;28;20043;-71
2023/09/13 04:48:59;;;;;;;6.68;6.07;;;20.90;96.70;;;;;;5088567;28;20047;-71
2023/09/13 04:51:27;;;;;;;7.93;6.05;;;21.00;96.70;;;;;;5080524;28;20081;-71
2023/09/13 04:53:57;;;;;;;7.30;5.80;;;21.10;96.70;;;;;;5089110;28;20147;-71
2023/09/13 04:56:25;;;;;;;7.57;5.85;;;21.10;96.70;;;;;;5088877;28;20047;-70
2023/09/13 04:58:53;;;;;;;7.65;6.70;;;21.10;96.70;;;;;;5088538;28;20040;-70
2023/09/13 05:01:21;;;;;;;7.03;6.43;;;21.20;96.70;;;;;;5088826;28;20047;-71
2023/09/13 05:03:50;;;;;;;7.80;6.60;;;21.20;96.70;;;;;;5088067;28;20069;-70
2023/09/13 05:06:18;;;;;;;7.55;6.80;;;21.20;96.70;;;;;;5080926;28;20679;-72
2023/09/13 05:08:49;;;;;;;11.88;7.47;;;21.20;96.70;;;;;;5088571;28;20047;-70
2023/09/13 05:11:18;;;;;;;7.43;6.22;;;21.20;96.70;;;;;;5088829;28;20054;-71
2023/09/13 05:13:47;;;;;;;7.18;6.35;;;21.20;96.70;;;;;;5088799;28;20636;-71
2023/09/13 05:16:19;;;;;;;7.53;6.00;;;21.20;96.70;;;;;;5107226;28;20454;-71
2023/09/13 05:18:47;;;;;;;8.05;5.68;;;21.20;96.70;;;;;;5106526;28;20780;-70
2023/09/13 05:21:15;;;;;;;6.25;5.65;;;21.20;96.70;;;;;;5097382;28;20043;-70
2023/09/13 05:23:43;;;;;;;6.38;5.80;;;21.20;96.70;;;;;;5088363;28;20043;-70
2023/09/13 05:26:11;;;;;;;7.10;5.70;;;21.10;96.70;;;;;;5071861;28;20048;-71
2023/09/13 05:28:42;;;;;;;7.53;6.13;;;21.10;96.70;;;;;;5106613;28;20043;-71
2023/09/13 05:31:10;;;;;;;5.57;4.90;;;21.20;96.70;;;;;;5106348;28;20560;-70
2023/09/13 05:33:37;;;;;;;6.20;5.43;;;21.20;96.70;;;;;;5102784;28;20040;-71
2023/09/13 05:36:07;;;;;;;6.97;5.88;;;21.30;96.70;;;;;;5097737;28;20059;-71
2023/09/13 05:38:35;;;;;;;8.10;6.22;;;21.30;96.70;;;;;;5088444;28;20047;-70
2023/09/13 05:41:07;;;;;;;6.47;5.78;;;21.30;96.70;;;;;;5106246;28;20101;-70
2023/09/13 05:43:35;;;;;;;6.90;6.20;;;21.40;96.70;;;;;;5087943;28;20044;-70
2023/09/13 05:46:04;;;;;;;7.28;6.55;;;21.40;96.70;;;;;;5071073;28;20031;-71
2023/09/13 05:48:33;;;;;;;7.72;6.50;;;21.40;96.70;;;;;;5106225;28;20519;-70
2023/09/13 05:51:01;;;;;;;8.90;6.40;;;21.40;96.70;;;;;;5087654;28;20416;-71
2023/09/13 05:53:30;;;;;;;8.90;6.47;;;21.30;96.70;;;;;;5087478;28;20055;-71
2023/09/13 05:55:58;;;;;;;7.15;6.45;;;21.30;96.70;;;;;;5071100;28;20047;-70
2023/09/13 05:58:26;;;;;;;8.88;6.53;;;21.30;96.70;;;;;;5087529;28;20043;-71
2023/09/13 06:00:55;;;;;;;7.88;6.38;;;21.30;96.70;;;;;;5105795;28;20044;-70
2023/09/13 06:03:25;;;;;;;7.88;6.88;;;21.40;96.70;;;;;;5070920;28;20043;-70
2023/09/13 06:05:53;;;;;;;6.95;6.13;;;21.30;96.70;;;;;;5087509;28;20138;-71
2023/09/13 06:08:21;;;;;;;7.78;6.05;;;21.30;96.70;;;;;;5105490;28;20036;-70
2023/09/13 06:10:49;;;;;;;7.20;6.47;;;21.30;96.70;;;;;;5071325;28;20044;-70
2023/09/13 06:13:17;;;;;;;7.93;6.25;;;21.30;96.70;;;;;;5105514;28;20050;-71
2023/09/13 06:15:45;;;;;;;9.80;7.10;;;21.30;96.70;;;;;;5087068;28;20043;-71
2023/09/13 06:18:14;;;;;;;13.52;6.82;;;21.30;96.70;;;;;;5087819;28;20427;-69
2023/09/13 06:20:44;;;;;;;10.75;6.80;;;21.20;96.70;;;;;;5105276;28;20493;-70
2023/09/13 06:23:33;;;;;;;10.32;6.97;;;21.20;96.70;;;;;;5087445;28;20051;-70
2023/09/13 06:26:02;;;;;;;9.40;6.90;;;21.30;96.70;;;;;;5081718;28;20409;-71
2023/09/13 06:28:30;;;;;;;9.30;7.22;;;21.20;96.70;;;;;;5102843;28;20079;-71
2023/09/13 06:31:00;;;;;;;8.10;6.40;;;21.20;96.70;;;;;;5103025;28;20039;-70
2023/09/13 06:33:31;;;;;;;9.38;6.65;;;21.10;96.70;;;;;;5087890;28;20131;-71
2023/09/13 06:36:11;;;;;;;9.45;7.22;;;21.30;96.70;;;;;;5076460;28;20079;-71
2023/09/13 06:38:39;;;;;;;9.85;7.07;;;21.20;96.70;;;;;;5066937;28;20051;-71
2023/09/13 06:41:08;;;;;;;8.48;7.22;;;21.30;96.70;;;;;;5083507;28;20107;-71
2023/09/13 06:43:37;;;;;;;10.43;7.93;;;21.30;96.70;;;;;;5065138;28;20040;-71
2023/09/13 06:46:25;;;;;;;10.02;8.30;;;21.30;96.70;;;;;;5078256;28;20040;-70
2023/09/13 06:48:53;;;;;;;14.02;9.05;;;21.20;96.70;;;;;;5085031;28;20039;-71
2023/09/13 06:51:24;;;;;;;16.40;11.27;;;21.20;96.70;;;;;;5076890;28;20536;-71
2023/09/13 06:54:12;;;;;;;15.43;10.43;;;21.30;96.70;;;;;;5083451;28;20513;-71
2023/09/13 06:56:43;;;;;;;18.52;9.50;;;21.30;96.70;;;;;;5082459;28;20052;-71
2023/09/13 06:59:15;;;;;;;12.90;9.52;;;21.40;96.70;;;;;;5082931;28;20040;-70
2023/09/13 07:01:44;;;;;;;18.15;9.63;;;21.40;96.70;;;;;;5084650;28;20069;-71
2023/09/13 07:04:33;;;;;;;16.08;9.27;;;21.40;96.70;;;;;;5085397;28;20048;-71
2023/09/13 07:07:11;;;;;;;16.52;9.88;;;21.40;96.70;;;;;;5083027;28;20454;-71
2023/09/13 07:09:42;;;;;;;14.48;9.88;;;21.50;96.70;;;;;;5066755;28;20147;-71
2023/09/13 07:12:10;;;;;;;15.75;8.55;;;21.60;96.70;;;;;;5083481;28;20040;-71
2023/09/13 07:14:38;;;;;;;13.68;9.55;;;21.70;96.70;;;;;;5082861;28;20139;-71
2023/09/13 07:17:05;;;;;;;15.27;8.75;;;21.90;96.70;;;;;;5084750;28;20123;-70
2023/09/13 07:19:34;;;;;;;12.15;7.95;;;22.00;96.70;;;;;;5083062;28;20071;-70
2023/09/13 07:22:03;;;;;;;13.63;7.82;;;22.20;96.70;;;;;;5057462;28;20055;-70
2023/09/13 07:24:32;;;;;;;11.40;7.65;;;22.30;96.70;;;;;;5084859;28;20052;-71
2023/09/13 07:27:00;;;;;;;13.82;7.97;;;22.20;96.70;;;;;;5084752;28;20060;-71
2023/09/13 07:29:28;;;;;;;13.00;8.52;;;22.20;96.70;;;;;;5082721;28;20040;-71
2023/09/13 07:31:56;;;;;;;11.30;8.00;;;22.30;96.70;;;;;;5082995;28;20048;-71
2023/09/13 07:34:24;;;;;;;12.18;8.63;;;22.30;96.70;;;;;;5083364;28;20055;-71
2023/09/13 07:36:58;;;;;;;11.95;8.35;;;22.20;96.70;;;;;;5075978;28;20143;-70
2023/09/13 07:39:28;;;;;;;12.30;8.68;;;22.30;96.70;;;;;;5104860;28;20039;-71
2023/09/13 07:41:58;;;;;;;8.75;7.80;;;22.10;96.70;;;;;;5069579;28;20100;-71
2023/09/13 07:44:26;;;;;;;11.13;7.78;;;21.70;96.70;;;;;;5104200;28;20051;-70
2023/09/13 07:46:54;;;;;;;15.07;8.95;;;21.60;96.70;;;;;;5103418;28;20035;-70
2023/09/13 07:49:22;;;;;;;8.80;7.28;;;21.50;96.70;;;;;;5100313;28;20130;-71
2023/09/13 07:51:50;;;;;;;9.38;6.90;;;21.40;96.70;;;;;;5097577;28;20301;-71
2023/09/13 07:54:18;;;;;;;12.93;7.50;;;21.40;96.70;;;;;;5104680;28;20044;-71
2023/09/13 07:56:46;;;;;;;8.52;7.10;;;21.50;96.70;;;;;;5089876;28;20401;-70
2023/09/13 07:59:17;;;;;;;11.55;6.85;;;21.70;96.70;;;;;;5070908;28;20105;-70
2023/09/13 08:01:45;;;;;;;8.65;7.68;;;21.90;96.70;;;;;;5104596;28;20047;-70
2023/09/13 08:04:13;;;;;;;12.02;7.85;;;22.10;96.70;;;;;;5100146;28;20046;-72
2023/09/13 08:06:41;;;;;;;8.93;7.22;;;22.30;96.70;;;;;;5086389;28;20065;-71
2023/09/13 08:09:09;;;;;;;13.88;8.13;;;22.40;96.70;;;;;;5107074;28;20051;-70
2023/09/13 08:11:39;;;;;;;10.32;8.05;;;22.70;96.70;;;;;;5090132;28;20066;-71
2023/09/13 08:14:07;;;;;;;12.93;8.02;;;22.80;96.70;;;;;;5089946;28;20089;-71
2023/09/13 08:16:37;;;;;;;17.35;9.18;;;22.90;96.70;;;;;;5090204;28;20492;-71
2023/09/13 08:19:05;;;;;;;21.33;10.30;;;23.00;96.70;;;;;;5086978;28;20051;-70
2023/09/13 08:21:33;;;;;;;15.82;9.25;;;23.20;96.70;;;;;;5089471;28;20131;-71
2023/09/13 08:24:03;;;;;;;15.77;8.65;;;23.20;96.70;;;;;;5072927;28;20047;-72
2023/09/13 08:26:31;;;;;;;12.25;8.85;;;23.30;96.70;;;;;;5069836;28;20109;-70
2023/09/13 08:29:03;;;;;;;13.82;8.10;;;23.40;96.70;;;;;;5107745;28;20043;-71
2023/09/13 08:31:31;;;;;;;9.82;7.75;;;23.50;96.70;;;;;;5089914;28;20082;-70
2023/09/13 08:34:00;;;;;;;10.00;7.55;;;23.50;96.70;;;;;;5107902;28;20039;-70
2023/09/13 08:36:28;;;;;;;11.32;7.25;;;23.50;96.70;;;;;;5092817;28;20055;-72
2023/09/13 08:38:56;;;;;;;11.02;7.95;;;23.60;96.70;;;;;;5107692;28;20120;-71
2023/09/13 08:41:24;;;;;;;9.70;7.95;;;23.60;96.70;;;;;;5107732;28;20047;-71
2023/09/13 08:43:53;;;;;;;11.15;8.02;;;23.60;96.70;;;;;;5089487;28;20035;-71
2023/09/13 08:46:22;;;;;;;11.65;9.52;;;23.70;96.70;;;;;;5072790;28;20390;-71
2023/09/13 08:48:52;;;;;;;10.85;9.05;;;23.60;96.70;;;;;;5107061;28;20136;-71
2023/09/13 08:51:22;;;;;;;16.08;10.82;;;23.50;96.70;;;;;;5107329;27;20097;-71
2023/09/13 08:53:51;;;;;;;9.88;8.88;;;23.50;96.70;;;;;;5089226;28;20512;-70
2023/09/13 08:56:21;;;;;;;12.63;9.00;;;23.60;96.70;;;;;;5088822;28;20083;-70
2023/09/13 08:58:51;;;;;;;10.65;9.55;;;23.60;96.70;;;;;;5089377;28;20044;-71
2023/09/13 09:01:21;;;;;;;10.68;9.57;;;23.60;96.70;;;;;;5089411;28;20043;-72
2023/09/13 09:03:50;;;;;;;12.48;9.15;;;23.70;96.70;;;;;;5089105;28;20078;-71
2023/09/13 09:06:19;;;;;;;9.85;8.57;;;23.80;96.70;;;;;;5088885;28;20058;-70
2023/09/13 09:08:50;;;;;;;12.55;7.97;;;23.90;96.70;;;;;;5072059;28;20105;-71
2023/09/13 09:11:21;;;;;;;9.10;7.85;;;24.00;96.70;;;;;;5107045;28;20544;-71
2023/09/13 09:13:51;;;;;;;8.55;7.57;;;24.20;96.70;;;;;;5106972;28;20126;-71
2023/09/13 09:16:21;;;;;;;9.77;7.82;;;24.40;96.70;;;;;;5089132;28;20047;-70
2023/09/13 09:18:52;;;;;;;11.07;8.23;;;24.50;96.70;;;;;;5103332;28;20115;-72
2023/09/13 09:21:20;;;;;;;10.75;7.38;;;24.50;96.70;;;;;;5088116;28;20127;-70
2023/09/13 09:23:50;;;;;;;9.00;7.85;;;24.60;96.70;;;;;;5106816;28;20660;-71
2023/09/13 09:26:18;;;;;;;8.18;7.38;;;24.70;96.70;;;;;;5088328;28;20087;-71
2023/09/13 09:28:49;;;;;;;7.70;7.00;;;24.60;96.70;;;;;;5106532;28;20473;-72
2023/09/13 09:31:25;;;;;;;8.35;7.25;;;24.50;96.70;;;;;;5097562;28;20039;-71
2023/09/13 09:34:03;;;;;;;8.45;6.93;;;24.60;96.70;;;;;;5105944;28;20043;-71
2023/09/13 09:36:34;;;;;;;7.97;7.18;;;24.80;96.70;;;;;;5084535;28;20052;-71
2023/09/13 09:39:04;;;;;;;9.07;8.02;;;24.80;96.70;;;;;;5085853;28;20362;-71
2023/09/13 09:41:32;;;;;;;8.98;7.32;;;24.90;96.70;;;;;;5076144;28;20056;-72
2023/09/13 09:44:00;;;;;;;8.65;6.75;;;24.90;96.70;;;;;;5086034;28;20066;-71
2023/09/13 09:46:28;;;;;;;9.40;7.20;;;25.10;96.70;;;;;;5084234;28;20410;-72
2023/09/13 09:48:59;;;;;;;10.38;7.78;;;25.20;96.70;;;;;;5084396;28;20055;-72
2023/09/13 09:51:29;;;;;;;8.77;7.60;;;25.30;96.70;;;;;;5078293;28;20545;-72
2023/09/13 09:53:57;;;;;;;6.78;5.95;;;25.30;96.70;;;;;;5065910;28;20041;-72
2023/09/13 09:56:26;;;;;;;8.68;7.53;;;25.50;96.70;;;;;;5084049;28;20509;-72
2023/09/13 09:58:54;;;;;;;7.68;6.43;;;25.60;96.70;;;;;;5085884;28;20046;-71
2023/09/13 10:01:22;;;;;;;7.28;6.68;;;25.80;96.70;;;;;;5084385;28;20048;-71
2023/09/13 10:03:54;;;;;;;6.82;6.00;;;26.00;96.70;;;;;;5085715;28;20046;-71
2023/09/13 10:06:23;;;;;;;8.57;6.63;;;26.30;96.70;;;;;;5085375;28;20141;-72
2023/09/13 10:08:50;;;;;;;7.63;6.93;;;26.40;96.70;;;;;;5067300;28;20052;-72
2023/09/13 10:11:21;;;;;;;7.55;6.80;;;26.20;96.70;;;;;;5084532;28;20047;-72
2023/09/13 10:13:50;;;;;;;6.95;6.25;;;26.30;96.70;;;;;;5084162;28;20047;-71
2023/09/13 10:16:18;;;;;;;6.60;6.10;;;26.40;96.70;;;;;;5067503;28;20044;-71
2023/09/13 10:18:48;;;;;;;7.18;6.57;;;26.30;96.70;;;;;;5084880;28;20062;-72
2023/09/13 10:21:23;;;;;;;6.57;5.90;;;26.40;96.70;;;;;;5067076;28;20075;-71
2023/09/13 10:23:56;;;;;;;7.07;6.47;;;26.50;96.70;;;;;;5067086;28;20048;-72
2023/09/13 10:26:25;;;;;;;7.10;6.38;;;26.50;96.70;;;;;;5085351;28;20044;-71
2023/09/13 10:28:59;;;;;;;7.00;6.32;;;26.50;96.70;;;;;;5085044;28;20110;-72
2023/09/13 10:31:28;;;;;;;7.60;6.90;;;26.60;96.70;;;;;;5074988;28;20131;-72
2023/09/13 10:34:01;;;;;;;7.13;6.43;;;26.70;96.70;;;;;;5083561;28;20488;-72
2023/09/13 10:36:32;;;;;;;7.53;6.68;;;26.90;96.70;;;;;;5083822;28;20062;-71
2023/09/13 10:39:10;;;;;;;6.75;6.15;;;26.90;96.70;;;;;;5083996;28;20044;-72
2023/09/13 10:41:46;;;;;;;8.68;6.47;;;27.00;96.70;;;;;;5075515;28;20083;-72
2023/09/13 10:44:17;;;;;;;6.88;6.22;;;27.30;96.70;;;;;;5085268;28;20533;-71
2023/09/13 10:46:46;;;;;;;6.32;5.82;;;27.50;96.70;;;;;;5087282;28;20047;-71
2023/09/13 10:49:14;;;;;;;6.35;5.47;;;27.70;96.70;;;;;;5084464;28;20052;-71
2023/09/13 10:51:43;;;;;;;7.03;5.30;;;27.80;96.70;;;;;;5084546;28;20048;-72
2023/09/13 10:54:12;;;;;;;5.55;4.68;;;27.90;96.70;;;;;;5066505;28;20147;-71
2023/09/13 10:56:41;;;;;;;5.68;5.28;;;27.90;96.70;;;;;;5083298;28;20048;-70
2023/09/13 10:59:12;;;;;;;6.43;5.80;;;27.80;96.70;;;;;;5084996;28;20574;-71
2023/09/13 11:01:46;;;;;;;5.88;4.88;;;27.50;96.70;;;;;;5084800;28;20462;-71
2023/09/13 11:04:14;;;;;;;6.13;4.80;;;27.50;96.70;;;;;;5066213;28;20820;-71
2023/09/13 11:06:43;;;;;;;6.18;4.65;;;27.60;96.70;;;;;;5083403;28;20048;-70
2023/09/13 11:09:12;;;;;;;5.03;4.47;;;27.90;96.70;;;;;;5066667;28;20139;-71
2023/09/13 11:11:46;;;;;;;4.72;4.25;;;27.80;96.70;;;;;;5083799;28;20077;-71
2023/09/13 11:14:20;;;;;;;8.57;4.53;;;28.00;96.70;;;;;;5084910;28;20478;-71
2023/09/13 11:16:50;;;;;;;4.47;4.07;;;27.90;96.70;;;;;;5075586;28;20067;-72
2023/09/13 11:19:18;;;;;;;7.72;5.00;;;28.00;96.70;;;;;;5084741;28;20055;-71
2023/09/13 11:21:47;;;;;;;7.38;4.70;;;28.00;96.70;;;;;;5084888;28;20044;-71
2023/09/13 11:24:33;;;;;;;5.88;4.50;;;27.90;96.70;;;;;;5066284;28;20047;-72
2023/09/13 11:27:11;;;;;;;5.22;4.60;;;28.00;96.70;;;;;;5076756;28;20131;-72
2023/09/13 11:29:42;;;;;;;5.22;4.70;;;28.00;96.70;;;;;;5066508;28;20052;-71
2023/09/13 11:32:17;;;;;;;6.43;5.00;;;28.20;96.70;;;;;;5083995;28;20155;-71
2023/09/13 11:34:52;;;;;;;6.40;5.30;;;28.30;96.70;;;;;;5065714;28;20549;-72
2023/09/13 11:37:20;;;;;;;5.05;4.57;;;28.40;96.70;;;;;;5084733;28;20044;-72
2023/09/13 11:39:52;;;;;;;5.78;4.68;;;28.40;96.70;;;;;;5084782;28;20138;-71
2023/09/13 11:42:28;;;;;;;5.63;4.85;;;28.50;96.70;;;;;;5066180;28;20058;-71
2023/09/13 11:45:07;;;;;;;6.43;4.53;;;28.60;96.70;;;;;;5088318;28;20089;-71
2023/09/13 11:47:56;;;;;;;4.93;4.25;;;28.70;96.70;;;;;;5086869;28;20482;-71
2023/09/13 11:50:24;;;;;;;5.97;5.03;;;28.70;96.70;;;;;;5086751;28;20040;-71
2023/09/13 11:53:20;;;;;;;6.88;4.55;;;28.50;96.70;;;;;;5065700;28;20409;-72
2023/09/13 11:55:55;;;;;;;6.35;4.35;;;28.40;96.70;;;;;;5088005;28;20405;-71
2023/09/13 11:58:34;;;;;;;5.15;4.60;;;28.40;96.70;;;;;;5086964;28;20047;-71
2023/09/13 12:01:23;;;;;;;7.32;4.53;;;28.50;96.70;;;;;;5082159;28;20044;-72
2023/09/13 12:03:54;;;;;;;7.15;4.93;;;28.60;96.70;;;;;;5086271;28;20143;-71
2023/09/13 12:06:43;;;;;;;4.40;4.00;;;28.80;96.70;;;;;;5079018;28;20135;-71
2023/09/13 12:09:17;;;;;;;6.35;4.07;;;28.90;96.70;;;;;;5083209;28;20529;-71
2023/09/13 12:11:53;;;;;;;5.15;3.90;;;28.80;96.70;;;;;;5086361;28;20050;-71
2023/09/13 12:14:27;;;;;;;5.03;4.50;;;28.70;96.70;;;;;;5086037;28;20143;-71
2023/09/13 12:17:16;;;;;;;5.35;3.80;;;28.60;96.70;;;;;;5087414;28;20416;-72
2023/09/13 12:19:48;;;;;;;5.10;3.88;;;28.60;96.70;;;;;;5086238;28;20044;-71
2023/09/13 12:22:18;;;;;;;5.63;3.80;;;28.40;96.70;;;;;;5086045;28;20051;-71
2023/09/13 12:24:52;;;;;;;4.88;3.55;;;28.40;96.70;;;;;;5069168;28;20052;-70
2023/09/13 12:27:22;;;;;;;5.70;3.45;;;28.50;96.70;;;;;;5086019;28;20422;-71
2023/09/13 12:29:52;;;;;;;7.88;3.75;;;28.60;96.70;;;;;;5087653;28;20510;-71
2023/09/13 12:32:20;;;;;;;3.97;3.58;;;28.60;96.70;;;;;;5087198;28;20047;-71
2023/09/13 12:34:49;;;;;;;4.28;3.80;;;28.60;96.70;;;;;;5091748;28;20525;-71
2023/09/13 12:37:16;;;;;;;4.03;3.42;;;28.50;96.70;;;;;;5100459;28;20500;-71
2023/09/13 12:39:44;;;;;;;4.38;3.70;;;28.60;96.70;;;;;;5087589;28;20044;-71
2023/09/13 12:42:12;;;;;;;11.27;4.97;;;28.50;96.70;;;;;;5084952;28;20040;-71
2023/09/13 12:44:41;;;;;;;6.85;3.90;;;28.50;96.70;;;;;;5089981;28;20051;-71
2023/09/13 12:47:09;;;;;;;4.75;3.85;;;28.40;96.70;;;;;;5107909;28;20147;-71
2023/09/13 12:49:38;;;;;;;4.97;3.80;;;28.50;96.70;;;;;;5089120;28;20067;-71
2023/09/13 12:52:08;;;;;;;3.88;3.58;;;28.50;96.70;;;;;;5089215;28;20043;-70
2023/09/13 12:54:35;;;;;;;5.25;4.05;;;28.50;96.70;;;;;;5106117;28;20135;-71
2023/09/13 13:22:42;;;;;;;5.28;3.38;;;28.00;96.70;;;;;;5105614;28;20156;-71
2023/09/13 13:25:10;;;;;;;5.93;4.07;;;28.10;96.70;;;;;;5103151;27;20168;-71
2023/09/13 13:27:39;;;;;;;4.75;3.10;;;28.10;96.70;;;;;;5107014;28;20040;-70